Time;durP1;ratioP1;P1;durP2;ratioP2;P2;SDS_P1;SDS_P2;PMS_P1;PMS_P2;Temp;Humidity;BMP_temperature;BMP_pressure;BME280_temperature;BME280_humidity;BME280_pressure;Samples;Min_cycle;Max_cycle;Signal;HPM_P1;HPM_P2
2023/08/25 00:10:03;;;;;;;13.63;12.25;;;;;;;-144.30;70.52;84100.53;5072124;28;20295;-46
2023/08/25 00:13:38;;;;;;;12.40;11.30;;;;;;;-144.30;70.69;84112.47;5071743;28;20279;-56
2023/08/25 00:16:50;;;;;;;12.52;11.32;;;;;;;-144.30;70.34;84108.50;5072045;28;20196;-55
2023/08/25 00:38:04;;;;;;;;;;;;;;;;;;;;;
2023/08/25 00:47:54;;;;;;;13.95;12.63;;;;;;;-144.30;70.21;84090.59;5068830;28;20211;-55
2023/08/25 00:51:09;;;;;;;15.70;14.02;;;;;;;-144.30;71.05;84110.47;5071203;28;20202;-47
2023/08/25 00:54:06;;;;;;;14.70;13.30;;;;;;;-144.30;71.84;83901.81;5071239;28;20352;-46
2023/08/25 01:00:08;;;;;;;18.73;13.70;;;;;;;-144.30;72.28;84136.31;5070266;28;20230;-55
2023/08/25 01:03:09;;;;;;;14.52;13.23;;;;;;;-144.30;72.09;84132.34;5071089;28;20386;-54
2023/08/25 01:12:42;;;;;;;15.40;12.80;;;;;;;-144.30;72.60;84068.75;5069545;28;20203;-56
2023/08/25 01:41:54;;;;;;;16.42;14.80;;;;;;;-144.30;80.60;84392.66;5069197;28;20277;-45
2023/08/25 01:48:29;;;;;;;18.50;16.13;;;;;;;-144.30;80.68;84388.69;5064232;28;20196;-55
2023/08/25 02:11:54;;;;;;;15.48;13.98;;;;;;;-144.30;78.73;84446.31;5068659;28;20214;-54
2023/08/25 02:14:57;;;;;;;13.77;12.55;;;;;;;-144.30;78.70;84446.31;5069623;28;20196;-54
2023/08/25 02:18:11;;;;;;;15.30;13.90;;;;;;;-144.30;78.51;84450.31;5069849;28;20326;-55
2023/08/25 02:23:57;;;;;;;15.02;13.52;;;;;;;-144.30;77.51;84462.22;5027997;28;20197;-46
2023/08/25 02:26:25;;;;;;;14.18;12.77;;;;;;;-144.30;77.79;84432.41;5029671;28;20628;-46
2023/08/25 02:29:00;;;;;;;14.93;13.48;;;;;;;-144.30;77.63;84426.47;5029540;28;20197;-46
2023/08/25 02:31:31;;;;;;;15.27;13.82;;;;;;;-144.30;77.69;84438.38;5029141;28;20223;-47
2023/08/25 02:34:05;;;;;;;15.07;13.55;;;;;;;-144.30;77.55;84422.47;5030739;28;20626;-46
2023/08/25 02:36:34;;;;;;;15.02;13.63;;;;;;;-144.30;77.70;84394.66;5037087;28;20571;-48
2023/08/25 02:39:10;;;;;;;15.40;13.70;;;;;;;-144.30;77.67;84462.22;5038350;28;20201;-47
2023/08/25 02:41:41;;;;;;;18.05;14.18;;;;;;;-144.30;77.18;84394.66;5037665;28;20197;-46
2023/08/25 02:44:12;;;;;;;18.50;13.95;;;;;;;-144.30;77.12;84372.78;5038578;28;20197;-48
2023/08/25 02:46:46;;;;;;;17.60;14.10;;;;;;;-144.30;77.12;84444.34;5039145;28;20202;-46
2023/08/25 02:49:17;;;;;;;17.38;15.15;;;;;;;-144.30;77.10;84422.47;5039947;28;20198;-47
2023/08/25 02:51:46;;;;;;;15.35;13.85;;;;;;;-144.30;77.10;84406.59;5036538;28;20284;-48
2023/08/25 02:54:15;;;;;;;14.60;13.20;;;;;;;-144.30;76.61;84400.63;5038066;28;20201;-56
2023/08/25 02:56:43;;;;;;;15.18;13.65;;;;;;;-144.30;76.19;84394.66;5038334;28;20602;-54
2023/08/25 02:59:12;;;;;;;13.95;12.52;;;;;;;-144.30;75.22;84386.72;5037800;28;20627;-47
2023/08/25 03:01:41;;;;;;;15.38;13.77;;;;;;;-144.30;75.30;84366.84;5039183;28;20235;-46
2023/08/25 03:04:17;;;;;;;14.57;13.15;;;;;;;-144.30;75.50;84354.91;5039367;28;20197;-46
2023/08/25 03:06:59;;;;;;;14.40;12.95;;;;;;;-144.30;76.00;84366.84;5037644;28;20252;-55
2023/08/25 03:09:39;;;;;;;14.55;13.15;;;;;;;-144.30;76.16;84392.66;5033933;28;20276;-54
2023/08/25 03:12:11;;;;;;;14.63;13.07;;;;;;;-144.30;76.86;84456.25;5028817;28;20263;-54
2023/08/25 03:14:48;;;;;;;16.67;12.93;;;;;;;-144.30;76.78;84257.53;5037664;28;20200;-46
2023/08/25 03:17:20;;;;;;;15.45;13.35;;;;;;;-144.30;76.80;84366.84;5031629;28;20212;-55
2023/08/25 03:19:58;;;;;;;16.75;13.32;;;;;;;-144.30;76.78;84396.66;5063365;28;20243;-46
2023/08/25 03:22:36;;;;;;;15.02;13.45;;;;;;;-144.30;76.63;84398.63;5072227;28;20207;-48
2023/08/25 03:25:11;;;;;;;21.80;13.57;;;;;;;-144.30;76.29;84378.75;5076041;28;20191;-55
2023/08/25 03:27:42;;;;;;;14.32;12.90;;;;;;;-144.30;76.37;84376.78;5073856;28;20555;-46
2023/08/25 03:30:21;;;;;;;14.30;12.82;;;;;;;-144.30;76.39;84390.69;5077507;28;20651;-46
2023/08/25 03:32:55;;;;;;;16.77;13.48;;;;;;;-144.30;76.51;84404.59;5076844;28;20290;-55
2023/08/25 03:35:33;;;;;;;15.30;13.70;;;;;;;-144.30;76.94;84426.47;5075362;28;20267;-55
2023/08/25 03:38:08;;;;;;;14.98;13.50;;;;;;;-144.30;77.31;84430.44;5074805;28;20199;-46
2023/08/25 03:40:37;;;;;;;14.80;12.68;;;;;;;-144.30;77.00;84426.47;5069818;28;20312;-46
2023/08/25 03:43:19;;;;;;;14.30;12.80;;;;;;;-144.30;76.14;84376.78;5068049;28;20250;-54
2023/08/25 03:46:03;;;;;;;14.05;12.80;;;;;;;-144.30;76.02;84378.75;5067419;28;20210;-54
2023/08/25 03:48:41;;;;;;;15.52;13.82;;;;;;;-144.30;76.25;84408.56;5066780;28;20207;-45
2023/08/25 03:51:37;;;;;;;18.77;13.27;;;;;;;-144.30;76.20;84374.78;5068305;28;20196;-45
2023/08/25 03:54:27;;;;;;;15.02;12.27;;;;;;;-144.30;76.08;84370.81;5067672;28;20711;-55
2023/08/25 03:57:03;;;;;;;15.35;13.18;;;;;;;-144.30;75.75;84350.94;5068576;28;20196;-46
2023/08/25 03:59:39;;;;;;;16.00;12.90;;;;;;;-144.30;75.63;84362.84;5068309;28;20199;-54
2023/08/25 04:02:17;;;;;;;16.35;12.45;;;;;;;-144.30;75.28;84335.03;5068327;28;20668;-47
2023/08/25 04:05:03;;;;;;;16.13;12.55;;;;;;;-144.30;74.94;84319.13;5068425;28;20200;-46
2023/08/25 04:07:43;;;;;;;15.65;12.43;;;;;;;-144.30;74.50;84368.81;5067922;28;20200;-55
2023/08/25 04:10:13;;;;;;;15.35;12.73;;;;;;;-144.30;73.59;84293.31;5066912;28;20624;-47
2023/08/25 04:13:02;;;;;;;14.05;12.65;;;;;;;-144.30;72.94;84281.38;5067857;28;20212;-47
2023/08/25 04:15:43;;;;;;;14.75;13.35;;;;;;;-144.30;72.85;84243.63;5068172;28;20211;-55
2023/08/25 04:18:23;;;;;;;15.23;12.70;;;;;;;-144.30;72.54;84247.59;5068266;28;20208;-55
2023/08/25 04:20:54;;;;;;;17.52;13.18;;;;;;;-144.30;72.14;84176.06;5028788;28;20719;-46
2023/08/25 04:23:28;;;;;;;20.58;14.07;;;;;;;-144.30;70.76;84124.38;5029232;28;20207;-54
2023/08/25 04:25:59;;;;;;;21.95;14.55;;;;;;;-144.30;67.94;83999.19;5031629;28;20208;-55
2023/08/25 04:28:57;;;;;;;16.40;13.48;;;;;;;-144.30;63.45;83675.31;5032762;28;20201;-47
2023/08/25 04:31:55;;;;;;;18.88;14.77;;;;;;;-144.30;59.85;83611.72;5031927;28;20189;-55
2023/08/25 04:34:47;;;;;;;19.30;13.73;;;;;;;-144.30;56.16;83385.22;5030979;28;20202;-47
2023/08/25 04:40:49;;;;;;;14.27;12.75;;;;;;;-144.30;48.73;82910.41;5031144;28;20244;-47
2023/08/25 04:43:45;;;;;;;17.50;12.98;;;;;;;-144.30;46.30;82759.44;5030855;28;20287;-55
2023/08/25 04:46:14;;;;;;;20.95;13.63;;;;;;;-144.30;45.71;82658.13;5034829;28;20684;-46
2023/08/25 04:48:56;;;;;;;17.90;15.68;;;;;;;-144.30;43.77;82515.13;5049687;28;20558;-55
2023/08/25 04:51:34;;;;;;;18.95;14.95;;;;;;;-144.30;42.75;82467.44;5051757;28;20197;-55
2023/08/25 04:54:14;;;;;;;17.40;14.50;;;;;;;-144.30;42.99;82487.31;5051945;28;20207;-47
2023/08/25 04:56:57;;;;;;;18.23;16.42;;;;;;;-144.30;42.43;82459.50;5051504;28;20685;-55
2023/08/25 05:15:08;;;;;;;18.52;14.40;;;;;;;-144.30;36.76;81641.28;5050562;28;20279;-48
2023/08/25 05:30:30;;;;;;;21.55;17.00;;;;;;;-144.30;36.71;81669.06;5075993;28;20638;-46
2023/08/25 05:33:15;;;;;;;29.25;16.35;;;;;;;-144.30;36.47;81665.09;5077920;28;20196;-54
2023/08/25 05:35:55;;;;;;;22.55;16.52;;;;;;;-144.30;36.33;81571.78;5079464;28;20196;-54
2023/08/25 05:38:28;;;;;;;20.52;17.00;;;;;;;-144.30;36.12;81510.22;5079068;28;20720;-54
2023/08/25 05:41:05;;;;;;;18.10;15.75;;;;;;;-144.30;35.75;81514.19;5077435;28;20215;-47
2023/08/25 05:43:33;;;;;;;17.92;15.90;;;;;;;-144.30;36.45;81688.94;5076435;28;20219;-54
2023/08/25 05:46:12;;;;;;;22.45;16.58;;;;;;;-144.30;35.75;81494.31;5079714;28;20729;-53
2023/08/25 05:48:41;;;;;;;25.10;15.85;;;;;;;-144.30;35.10;81401.00;5077914;28;20214;-47
2023/08/25 05:51:14;;;;;;;19.98;14.68;;;;;;;-144.30;34.24;81232.22;5079020;28;20188;-47
2023/08/25 05:53:57;;;;;;;16.98;14.85;;;;;;;-144.30;33.43;81061.47;5079133;28;20282;-47
2023/08/25 05:56:39;;;;;;;18.90;14.98;;;;;;;-144.30;33.26;81174.66;5079339;28;20268;-54
2023/08/25 05:59:32;;;;;;;15.15;13.63;;;;;;;-144.30;32.58;81001.91;5080034;28;20227;-55
2023/08/25 06:02:26;;;;;;;17.35;14.10;;;;;;;-144.30;32.02;80898.66;5076510;28;20215;-54
2023/08/25 06:05:12;;;;;;;16.17;14.07;;;;;;;-144.30;32.48;81005.88;5076153;28;20282;-54
2023/08/25 06:07:42;;;;;;;15.88;14.25;;;;;;;-144.30;31.98;80807.34;5077698;28;20280;-55
2023/08/25 06:10:10;;;;;;;20.35;14.32;;;;;;;-144.30;32.34;80894.69;5077622;28;20200;-47
2023/08/25 06:12:44;;;;;;;16.15;14.80;;;;;;;-144.30;31.91;80729.91;5074671;28;20275;-46
2023/08/25 06:15:15;;;;;;;17.10;15.18;;;;;;;-144.30;31.73;80706.09;5080244;28;20237;-46
2023/08/25 06:17:48;;;;;;;19.27;15.68;;;;;;;-144.30;31.35;80618.75;5069579;28;20293;-46
2023/08/25 06:20:21;;;;;;;21.25;16.08;;;;;;;-144.30;30.94;80588.97;5071612;28;20327;-48
2023/08/25 06:22:52;;;;;;;19.50;16.75;;;;;;;-144.30;31.32;80684.25;5079344;28;20191;-55
2023/08/25 06:25:23;;;;;;;19.92;15.82;;;;;;;-144.30;31.30;80743.81;5079539;28;20207;-55
2023/08/25 06:27:56;;;;;;;18.38;16.33;;;;;;;-144.30;31.52;80809.34;5078737;28;20199;-56
2023/08/25 06:30:24;;;;;;;17.88;16.45;;;;;;;-144.30;31.74;80801.41;5077649;28;20682;-47
2023/08/25 06:32:58;;;;;;;17.88;16.15;;;;;;;-144.30;31.37;80694.19;5086499;28;20194;-47
2023/08/25 06:35:29;;;;;;;16.92;15.40;;;;;;;-144.30;30.97;80577.06;5084548;28;20209;-46
2023/08/25 06:38:03;;;;;;;17.10;15.35;;;;;;;-144.30;30.75;80553.25;5083163;28;20574;-47
2023/08/25 06:40:33;;;;;;;21.40;15.13;;;;;;;-144.30;30.94;80592.94;5085921;28;20250;-47
2023/08/25 06:43:04;;;;;;;16.63;14.98;;;;;;;-144.30;31.27;80733.88;5089435;28;20199;-46
2023/08/25 06:45:35;;;;;;;18.08;15.85;;;;;;;-144.30;30.81;80600.88;5089314;28;20625;-46
2023/08/25 06:48:09;;;;;;;17.23;15.52;;;;;;;-144.30;30.72;80571.09;5088613;28;20194;-46
2023/08/25 06:50:39;;;;;;;17.25;15.52;;;;;;;-144.30;31.19;80672.34;5089063;28;20202;-55
2023/08/25 06:53:12;;;;;;;16.48;14.98;;;;;;;-144.30;30.88;80590.97;5089274;28;20583;-54
2023/08/25 06:55:45;;;;;;;21.15;15.20;;;;;;;-144.30;31.54;80769.63;5089188;28;20689;-46
2023/08/25 06:58:18;;;;;;;18.42;16.08;;;;;;;-144.30;31.52;80767.63;5089115;28;20205;-48
2023/08/25 07:00:45;;;;;;;19.23;16.33;;;;;;;-144.30;30.82;80594.94;5087823;28;20226;-55
2023/08/25 07:03:14;;;;;;;16.77;15.02;;;;;;;-144.30;30.15;80378.56;5089235;28;20259;-47
2023/08/25 07:05:42;;;;;;;17.30;15.48;;;;;;;-144.30;30.72;80727.94;5088994;28;20705;-46
2023/08/25 07:08:09;;;;;;;16.20;14.82;;;;;;;-144.30;31.17;80791.47;5089058;28;20199;-55
2023/08/25 07:10:37;;;;;;;17.73;14.27;;;;;;;-144.30;30.49;80497.66;5088952;28;20194;-55
2023/08/25 07:13:04;;;;;;;15.32;14.13;;;;;;;-144.30;29.51;80307.09;5088968;28;20214;-53
2023/08/25 07:15:31;;;;;;;16.63;15.13;;;;;;;-144.30;29.21;80188.00;5089051;28;20286;-55
2023/08/25 07:18:03;;;;;;;16.77;15.10;;;;;;;-144.30;29.34;80156.22;5089042;28;20201;-48
2023/08/25 07:20:35;;;;;;;17.05;15.55;;;;;;;-144.30;28.71;79908.13;5088460;28;20234;-55
2023/08/25 07:23:06;;;;;;;14.93;13.77;;;;;;;-144.30;28.37;79701.72;5089181;28;20198;-47
2023/08/25 07:25:37;;;;;;;16.70;15.15;;;;;;;-144.30;28.25;80358.69;5088675;28;20198;-55
2023/08/25 07:28:10;;;;;;;15.57;14.38;;;;;;;-144.30;28.01;79747.38;5088608;28;20194;-46
2023/08/25 07:30:39;;;;;;;15.93;14.23;;;;;;;-144.30;28.22;79733.47;5088883;28;20700;-46
2023/08/25 07:33:08;;;;;;;16.63;13.95;;;;;;;-144.30;27.98;79838.66;5088533;28;20662;-47
2023/08/25 07:35:37;;;;;;;15.95;14.45;;;;;;;-144.30;28.34;79830.72;5088714;28;20194;-48
2023/08/25 07:38:08;;;;;;;16.10;14.65;;;;;;;-144.30;28.48;79775.16;5088614;28;20203;-55
2023/08/25 07:40:41;;;;;;;15.55;14.00;;;;;;;-144.30;27.69;79570.72;5088464;28;20195;-55
2023/08/25 07:43:10;;;;;;;18.45;16.63;;;;;;;-144.30;27.82;79473.50;5088878;28;20678;-46
2023/08/25 07:45:43;;;;;;;16.70;14.93;;;;;;;-144.30;27.88;79445.69;5088467;28;20198;-47
2023/08/25 07:48:15;;;;;;;16.65;14.20;;;;;;;-144.30;27.96;79517.16;5088674;28;20195;-47
2023/08/25 07:50:46;;;;;;;16.52;15.18;;;;;;;-144.30;28.40;79671.94;5088572;28;20221;-47
2023/08/25 07:53:16;;;;;;;16.85;15.48;;;;;;;-144.30;28.37;79796.97;5088620;28;20205;-47
2023/08/25 07:55:46;;;;;;;16.08;14.63;;;;;;;-144.30;28.26;79735.47;5088555;28;20686;-46
2023/08/25 07:58:17;;;;;;;17.55;16.00;;;;;;;-144.30;28.71;79755.31;5088806;28;20199;-55
2023/08/25 08:00:49;;;;;;;18.30;16.52;;;;;;;-144.30;28.33;79636.22;5092219;28;20288;-54
2023/08/25 08:03:21;;;;;;;18.23;16.42;;;;;;;-144.30;28.45;79616.38;5092844;28;20199;-55
2023/08/25 08:05:56;;;;;;;35.67;23.77;;;;;;;-144.30;27.89;79300.84;5092602;28;20203;-55
2023/08/25 08:08:27;;;;;;;17.27;15.48;;;;;;;-144.30;27.29;79189.72;5092381;28;20194;-46
2023/08/25 08:10:57;;;;;;;17.00;15.25;;;;;;;-144.30;27.06;79124.22;5092311;28;20202;-47
2023/08/25 08:13:28;;;;;;;16.20;14.60;;;;;;;-144.30;26.63;78820.66;5092146;28;20698;-48
2023/08/25 08:15:58;;;;;;;15.20;13.85;;;;;;;-144.30;26.53;78507.16;5092146;28;20290;-47
2023/08/25 08:18:29;;;;;;;18.48;14.10;;;;;;;-144.30;26.17;78384.16;5091944;28;20205;-46
2023/08/25 08:21:07;;;;;;;16.17;14.85;;;;;;;-144.30;26.50;78711.50;5091908;28;20230;-48
2023/08/25 08:23:37;;;;;;;15.13;13.77;;;;;;;-144.30;26.49;78602.41;5092148;28;20194;-55
2023/08/25 08:26:12;;;;;;;14.95;13.77;;;;;;;-144.30;26.63;78556.75;5092074;28;20208;-54
2023/08/25 08:28:42;;;;;;;16.20;14.80;;;;;;;-144.30;27.13;79032.94;5091127;28;20213;-47
2023/08/25 08:31:18;;;;;;;14.95;13.90;;;;;;;-144.30;26.73;78802.78;5091852;28;20686;-48
2023/08/25 08:33:50;;;;;;;20.95;14.07;;;;;;;-144.30;26.84;78745.25;5091669;28;20217;-55
2023/08/25 08:36:20;;;;;;;14.18;13.10;;;;;;;-144.30;27.09;78858.34;5091629;28;20198;-55
2023/08/25 08:38:52;;;;;;;15.50;14.32;;;;;;;-144.30;27.08;78834.53;5091591;28;20245;-55
2023/08/25 08:41:23;;;;;;;15.50;14.13;;;;;;;-144.30;26.92;78925.81;5091564;28;20218;-46
2023/08/25 08:44:02;;;;;;;15.32;14.10;;;;;;;-144.30;27.25;79078.59;5091478;28;20197;-47
2023/08/25 08:46:38;;;;;;;16.27;14.48;;;;;;;-144.30;27.45;79175.81;5091646;28;20593;-46
2023/08/25 08:49:09;;;;;;;15.65;14.23;;;;;;;-144.30;27.74;79362.34;5091518;28;20588;-55
2023/08/25 08:51:45;;;;;;;16.10;14.52;;;;;;;-144.30;28.29;79660.03;5091344;28;20191;-46
2023/08/25 08:54:18;;;;;;;17.90;14.13;;;;;;;-144.30;28.22;79622.34;5091318;28;20198;-54
2023/08/25 08:56:52;;;;;;;17.00;15.38;;;;;;;-144.30;28.88;79904.16;5091208;28;20205;-55
2023/08/25 08:59:26;;;;;;;16.45;14.95;;;;;;;-144.30;29.37;80094.69;5091166;28;20195;-47
2023/08/25 09:02:00;;;;;;;15.98;14.20;;;;;;;-144.30;29.43;80092.72;5091156;28;20229;-46
2023/08/25 09:04:30;;;;;;;16.10;14.27;;;;;;;-144.30;29.67;80120.50;5090904;28;20190;-54
2023/08/25 09:07:10;;;;;;;15.88;14.70;;;;;;;-144.30;29.70;80088.75;5091314;28;20582;-54
2023/08/25 09:09:40;;;;;;;17.02;15.60;;;;;;;-144.30;29.46;80080.81;5090505;28;20186;-54
2023/08/25 09:12:13;;;;;;;17.05;15.00;;;;;;;-144.30;29.70;79979.59;5087272;28;20188;-54
2023/08/25 09:14:47;;;;;;;16.23;14.68;;;;;;;-144.30;28.74;79854.53;5070732;28;20207;-47
2023/08/25 09:17:18;;;;;;;16.05;14.35;;;;;;;-144.30;28.63;79658.06;5070807;28;20690;-46
2023/08/25 09:19:56;;;;;;;21.90;15.05;;;;;;;-144.30;28.51;79540.97;5070151;28;20737;-46
2023/08/25 09:22:31;;;;;;;16.38;15.07;;;;;;;-144.30;28.10;79417.91;5070632;28;20223;-46
2023/08/25 09:25:06;;;;;;;20.02;15.00;;;;;;;-144.30;27.52;79171.84;5068953;28;20294;-54
2023/08/25 09:27:39;;;;;;;15.38;13.77;;;;;;;-144.30;27.25;78727.38;5070436;28;20703;-54
2023/08/25 09:30:16;;;;;;;15.98;14.48;;;;;;;-144.30;26.41;78513.13;5070486;28;20195;-45
2023/08/25 09:32:48;;;;;;;15.30;14.05;;;;;;;-144.30;26.83;78925.81;5068770;28;20282;-54
2023/08/25 09:35:25;;;;;;;94.85;20.35;;;;;;;-144.30;26.75;78834.53;5070213;28;20199;-46
2023/08/25 09:38:00;;;;;;;31.15;15.80;;;;;;;-144.30;26.53;78681.75;5070133;28;20686;-46
2023/08/25 09:40:35;;;;;;;15.55;14.00;;;;;;;-144.30;26.00;78302.81;5071717;28;20199;-54
2023/08/25 09:43:11;;;;;;;47.38;16.48;;;;;;;-144.30;26.32;78443.69;5090361;28;20221;-46
2023/08/25 09:45:43;;;;;;;28.40;15.43;;;;;;;-144.30;26.08;78286.94;5089831;28;20195;-46
2023/08/25 09:48:17;;;;;;;39.45;16.23;;;;;;;-144.30;26.30;78576.59;5090661;28;20741;-55
2023/08/25 09:50:52;;;;;;;17.00;14.60;;;;;;;-144.30;26.36;78505.19;5090370;28;20206;-48
2023/08/25 09:53:27;;;;;;;16.20;14.55;;;;;;;-144.30;26.26;78540.88;5087044;28;20202;-47
2023/08/25 09:56:05;;;;;;;15.50;13.88;;;;;;;-144.30;25.97;78104.44;5090322;28;20198;-46
2023/08/25 09:58:41;;;;;;;15.30;14.07;;;;;;;-144.30;25.62;77933.84;5090388;28;20661;-55
2023/08/25 10:01:14;;;;;;;16.15;14.70;;;;;;;-144.30;25.78;78273.06;5090090;28;20226;-55
2023/08/25 10:03:45;;;;;;;15.82;14.57;;;;;;;-144.30;26.93;78983.34;5088784;28;20269;-54
2023/08/25 10:06:17;;;;;;;15.55;14.35;;;;;;;-144.30;27.15;79241.31;5090066;28;20728;-55
2023/08/25 10:08:51;;;;;;;16.08;14.68;;;;;;;-144.30;27.83;79322.66;5089882;28;20199;-55
2023/08/25 10:11:22;;;;;;;17.17;14.30;;;;;;;-144.30;27.01;79201.63;5090118;28;20546;-46
2023/08/25 10:13:56;;;;;;;16.08;14.68;;;;;;;-144.30;27.21;79279.00;5089736;28;20765;-46
2023/08/25 10:16:26;;;;;;;19.25;15.27;;;;;;;-144.30;27.69;79612.41;5090077;28;20199;-46
2023/08/25 10:18:59;;;;;;;15.13;13.70;;;;;;;-144.30;28.28;79826.75;5089575;28;20199;-47
2023/08/25 10:21:28;;;;;;;15.10;13.90;;;;;;;-144.30;27.88;79918.06;5088798;28;20202;-45
2023/08/25 10:24:03;;;;;;;14.90;13.25;;;;;;;-144.30;28.84;80358.69;5089545;28;20657;-45
2023/08/25 10:26:34;;;;;;;14.85;13.00;;;;;;;-144.30;30.11;80731.91;5089577;28;20303;-46
2023/08/25 10:29:09;;;;;;;13.85;12.63;;;;;;;-144.30;30.31;80926.47;5089761;28;20198;-55
2023/08/25 10:31:47;;;;;;;14.32;13.18;;;;;;;-144.30;31.26;81144.88;5089298;28;20194;-55
2023/08/25 10:34:41;;;;;;;17.13;12.60;;;;;;;-144.30;31.69;81327.53;5089418;28;20248;-54
2023/08/25 10:37:11;;;;;;;14.45;13.05;;;;;;;-144.30;32.00;81424.81;5089353;28;20210;-55
2023/08/25 10:39:59;;;;;;;14.07;12.90;;;;;;;-144.30;32.54;81538.00;5089135;28;20234;-55
2023/08/25 10:42:33;;;;;;;14.45;13.00;;;;;;;-144.30;33.02;81516.16;5088971;28;20234;-55
2023/08/25 10:45:04;;;;;;;20.02;14.00;;;;;;;-144.30;33.09;81555.88;5089579;28;20193;-55
2023/08/25 10:47:36;;;;;;;13.25;12.32;;;;;;;-144.30;33.07;81555.88;5089329;28;20201;-47
2023/08/25 10:50:10;;;;;;;14.90;13.60;;;;;;;-144.30;33.35;81595.59;5089206;28;20202;-47
2023/08/25 10:52:52;;;;;;;14.00;12.55;;;;;;;-144.30;33.43;81669.06;5089356;28;20280;-47
2023/08/25 10:55:40;;;;;;;14.18;12.38;;;;;;;-144.30;33.70;81756.44;5089380;28;20218;-47
2023/08/25 10:58:21;;;;;;;14.27;12.07;;;;;;;-144.30;33.70;81758.44;5089045;28;20787;-47
2023/08/25 11:01:08;;;;;;;13.60;12.10;;;;;;;-144.30;33.78;81724.69;5088788;28;20195;-46
2023/08/25 11:04:05;;;;;;;13.27;12.02;;;;;;;-144.30;33.70;81770.34;5089098;28;20219;-48
2023/08/25 11:06:45;;;;;;;12.70;11.65;;;;;;;-144.30;33.42;81762.41;5088724;28;20206;-53
2023/08/25 11:09:35;;;;;;;14.43;11.68;;;;;;;-144.30;33.21;81736.59;5089001;28;20195;-54
2023/08/25 11:12:08;;;;;;;16.23;11.65;;;;;;;-144.30;33.28;81704.81;5088840;28;20595;-54
2023/08/25 11:14:39;;;;;;;13.05;11.95;;;;;;;-144.30;33.48;81897.44;5088987;28;20199;-54
2023/08/25 11:17:11;;;;;;;12.75;11.77;;;;;;;-144.30;33.29;81669.06;5089231;28;20195;-46
2023/08/25 11:19:43;;;;;;;12.57;11.48;;;;;;;-144.30;33.24;81619.44;5088487;28;20237;-46
2023/08/25 11:22:17;;;;;;;13.77;12.20;;;;;;;-144.30;32.94;81653.19;5088681;28;20262;-46
2023/08/25 11:24:53;;;;;;;11.88;11.07;;;;;;;-144.30;32.85;81688.94;5088735;28;20206;-46
2023/08/25 11:27:28;;;;;;;10.55;9.45;;;;;;;-144.30;32.75;81659.16;5088619;28;20191;-46
2023/08/25 11:30:14;;;;;;;11.82;10.75;;;;;;;-144.30;32.59;81792.19;5088646;28;20195;-46
2023/08/25 11:32:47;;;;;;;11.70;10.65;;;;;;;-144.30;32.34;81810.06;5089484;28;20222;-45
2023/08/25 11:35:21;;;;;;;10.43;9.55;;;;;;;-144.30;32.54;81820.00;5072068;28;20380;-46
2023/08/25 11:37:53;;;;;;;10.52;9.38;;;;;;;-144.30;32.37;81887.53;5072033;28;20200;-46
2023/08/25 11:40:24;;;;;;;9.30;8.68;;;;;;;-144.30;32.06;81871.63;5072151;28;20200;-54
2023/08/25 11:42:59;;;;;;;10.10;9.20;;;;;;;-144.30;31.94;81931.22;5072216;28;20243;-54
2023/08/25 11:45:31;;;;;;;9.27;8.63;;;;;;;-144.30;31.79;81847.78;5077396;28;20645;-56
2023/08/25 11:48:02;;;;;;;9.38;8.68;;;;;;;-144.30;31.05;81827.94;5072011;28;20219;-54
2023/08/25 11:50:31;;;;;;;10.57;9.45;;;;;;;-144.30;31.33;81859.72;5071545;28;20253;-53
2023/08/25 11:53:04;;;;;;;11.32;10.07;;;;;;;-144.30;31.73;81812.06;5071985;28;20191;-55
2023/08/25 11:55:38;;;;;;;9.55;8.85;;;;;;;-144.30;31.69;81808.09;5072035;28;20291;-54
2023/08/25 11:58:16;;;;;;;9.82;8.98;;;;;;;-144.30;31.59;81863.69;5072155;28;20654;-55
2023/08/25 12:00:45;;;;;;;10.27;9.05;;;;;;;-144.30;31.64;81865.66;5071822;28;20652;-55
2023/08/25 12:03:16;;;;;;;10.65;9.15;;;;;;;-144.30;31.72;81820.00;5071970;28;20821;-54
2023/08/25 12:05:46;;;;;;;10.32;8.68;;;;;;;-144.30;32.00;81816.03;5071284;28;20203;-54
2023/08/25 12:08:20;;;;;;;9.15;8.27;;;;;;;-144.30;31.37;81798.16;5072307;28;20207;-54
2023/08/25 12:10:50;;;;;;;10.55;9.48;;;;;;;-144.30;31.86;81863.69;5071955;28;20598;-54
2023/08/25 12:13:34;;;;;;;13.48;9.00;;;;;;;-144.30;31.86;81867.66;5073974;28;20670;-47
2023/08/25 12:16:06;;;;;;;15.10;13.60;;;;;;;-144.30;31.64;81847.78;5092413;28;20257;-47
2023/08/25 12:18:39;;;;;;;10.05;9.30;;;;;;;-144.30;31.20;81887.53;5091636;28;20191;-46
2023/08/25 12:21:10;;;;;;;9.80;7.93;;;;;;;-144.30;30.98;81947.09;5051773;28;20271;-46
2023/08/25 12:23:43;;;;;;;10.85;7.53;;;;;;;-144.30;30.75;81935.19;5051516;28;20655;-47
2023/08/25 12:26:18;;;;;;;7.05;6.60;;;;;;;-144.30;30.28;81980.84;5051706;28;20201;-55
2023/08/25 12:28:56;;;;;;;7.07;6.50;;;;;;;-144.30;29.96;81964.97;5051691;28;20204;-55
2023/08/25 12:31:27;;;;;;;7.53;6.95;;;;;;;-144.30;30.86;81978.88;5051854;28;20204;-55
2023/08/25 12:33:55;;;;;;;7.10;6.50;;;;;;;-144.30;30.90;81949.09;5050842;28;20673;-46
2023/08/25 12:36:27;;;;;;;8.23;7.65;;;;;;;-144.30;30.95;81943.13;5051838;28;20254;-46
2023/08/25 12:38:56;;;;;;;7.78;7.20;;;;;;;-144.30;31.00;81933.19;5051721;28;20204;-46
2023/08/25 12:41:24;;;;;;;8.48;7.60;;;;;;;-144.30;31.18;81925.25;5051540;28;20561;-46
2023/08/25 12:43:58;;;;;;;8.57;7.95;;;;;;;-144.30;31.13;81891.50;5050940;28;20225;-47
2023/08/25 12:46:28;;;;;;;8.48;7.85;;;;;;;-144.30;31.24;81895.47;5051194;28;20201;-46
2023/08/25 12:48:58;;;;;;;8.77;8.07;;;;;;;-144.30;31.39;81863.69;5053628;28;20310;-46
2023/08/25 12:51:28;;;;;;;8.80;8.07;;;;;;;-144.30;31.27;81853.75;5071267;28;20195;-47
2023/08/25 12:54:00;;;;;;;8.77;8.18;;;;;;;-144.30;30.92;81913.34;5071390;28;20200;-46
2023/08/25 12:56:31;;;;;;;18.20;9.00;;;;;;;-144.30;30.88;81887.53;5071315;28;20299;-47
2023/08/25 12:59:06;;;;;;;9.70;8.55;;;;;;;-144.30;31.02;81909.38;5071121;28;20211;-47
2023/08/25 13:01:36;;;;;;;8.77;8.07;;;;;;;-144.30;30.90;81903.41;5071167;28;20619;-55
2023/08/25 13:04:07;;;;;;;7.63;6.68;;;;;;;-144.30;30.36;81887.53;5070429;28;20224;-47
2023/08/25 13:06:36;;;;;;;7.78;7.28;;;;;;;-144.30;30.31;81847.78;5071523;28;20247;-56
2023/08/25 13:09:07;;;;;;;7.95;7.22;;;;;;;-144.30;30.14;81877.59;5071108;28;20243;-55
2023/08/25 13:11:37;;;;;;;7.78;7.05;;;;;;;-144.30;30.37;81913.34;5070372;28;20211;-54
2023/08/25 13:14:10;;;;;;;7.95;7.45;;;;;;;-144.30;30.36;81893.47;5070902;28;20231;-46
2023/08/25 13:16:42;;;;;;;8.15;7.65;;;;;;;-144.30;30.91;81899.44;5070679;28;20200;-46
2023/08/25 13:19:16;;;;;;;9.55;8.27;;;;;;;-144.30;31.08;81899.44;5070023;28;20244;-45
2023/08/25 13:21:47;;;;;;;9.13;8.55;;;;;;;-144.30;31.18;81923.25;5070295;28;20227;-46
2023/08/25 13:24:19;;;;;;;9.57;8.82;;;;;;;-144.30;31.33;81919.28;5070783;28;20228;-46
2023/08/25 13:26:49;;;;;;;9.43;8.60;;;;;;;-144.30;31.76;81899.44;5070629;28;20192;-46
2023/08/25 13:29:27;;;;;;;9.80;8.85;;;;;;;-144.30;32.16;81895.47;5070537;28;20715;-54
2023/08/25 13:32:00;;;;;;;9.70;8.80;;;;;;;-144.30;31.95;81847.78;5070467;28;20196;-54
2023/08/25 13:34:34;;;;;;;10.52;9.73;;;;;;;-144.30;31.95;81887.53;5069689;28;20632;-55
2023/08/25 13:37:04;;;;;;;10.10;8.05;;;;;;;-144.30;31.67;81921.28;5070700;28;20196;-54
2023/08/25 13:39:38;;;;;;;9.85;9.18;;;;;;;-144.30;31.64;81939.16;5070439;28;20601;-55
2023/08/25 13:42:08;;;;;;;9.27;8.77;;;;;;;-144.30;31.46;81931.22;5070490;28;20199;-55
2023/08/25 13:44:41;;;;;;;8.45;7.85;;;;;;;-144.30;31.52;81937.16;5069821;28;20231;-46
2023/08/25 13:47:13;;;;;;;9.13;8.38;;;;;;;-144.30;31.76;81957.03;5069934;28;20208;-46
2023/08/25 13:49:43;;;;;;;9.65;8.90;;;;;;;-144.30;31.99;81923.25;5069613;28;20640;-46
2023/08/25 13:52:15;;;;;;;8.57;8.07;;;;;;;-144.30;31.71;81911.34;5070283;28;20372;-45